News    GLOBAL    TV    HD    3D    Ultra HD    Radio    Data    Temp.FTA    [-]    Clair

Annuaire & Zapping Satellite Européen
Recherche des Chaînes:
Eutelsat 9B (9.0°E) Répéteur IT1
NEWS - [+] [-] - Temporairement en clair - CHAINES - BOUQUETS - FAISCEAUX - CIMETIERE
7.0E>
<10.0E

Position orbitale Satellite Norad .ini News chaînes Chaines en clair Longitude Declination now Max declination Azimuth Elevation Mise à jour
9.0°E Eutelsat 9B 41310 813 538 9°E -0.03° 0.04° N/A N/A 2022-08-08 18:18


Tri par: Cryptage: Affichage:

61 réponse(s) - Tri par fréquence - Dernières mises à jour: CET

Pos Satellite Frequence Pol Txp Beam Standard Modulation SR/FEC Network, bitrate NID TID
9.0°E 32Eutelsat 9B 12111.00VIT1ItalyDVB-S2
PLS: Root+8
16APSK
Stream 1
31400 2/3CAIRO DUE, 22.4 Mb/s 8572263 Formulaire de mise à jour des informations publiées
LA7 (provvisorio) Clair 711 970 971 ita  111  970    2022-03-09
La 7 d
Italie Généraliste Clair 712 990 991 ita  112  990    2022-03-09 +
LA7 (provvisorio) Clair 721 970 971 ita  121  970    2022-03-09
LA7d (provvisorio) Clair 722 990 991 ita  122  990    2022-03-09
La 7 HD Italie Généraliste Clair 751 1530 1532 ita  151  1530    2021-04-09 +
La7d HD Italie Généraliste Clair 752 1540 1542 ita  152  590    2022-03-09 +
LA7 on demand Clair 792 970 971 ita  192  970    2021-12-18
DAZN 1 HD Italie Sport Nagravision 3 801 1470 1471 ita  201  1470    2021-08-29 +
Italia 121 Italie Généraliste Canale Italia Clair 3001 3011 3012  301  3011    2021-12-31 +
Arte Italia 124 Italie Généraliste Canale Italia Clair 3002 3021 3022  302  3021    2021-12-31 +
Arte Italia 125 Italie Généraliste Canale Italia Clair 3003 3031 3032 ita  303  3031    2021-12-31 +
Italia 126 Italie Généraliste Canale Italia Clair 3004 3041 3042  304  3041    2021-12-31 +
Italia 127 Italie Généraliste Canale Italia Clair 3005 3051 3052 ita  305  3051    2021-12-31 +
Italia 135 Italie Généraliste Canale Italia Clair 3006 3061 3062  306  3061    2021-12-31 +
Italia 134 Italie Divers Canale Italia Clair 3007 3071 3072 ita  307  3071    2022-01-11 +
Italia 121 Italie Généraliste Canale Italia Clair 3101 3011 3012 ita  311  3011    2021-12-31 +
Arte Italia Canale 124 Italie Télé Achat Canale Italia Clair 3102 3021 3022 ita  312  3021    2021-12-31 +
Italia 136 Canale Italia Clair 3103 3031 3032  313  3031    2022-01-09
Italia 126 Italie Généraliste Canale Italia Clair 3104 3041 3042 ita  314  3041    2021-12-31 +
Italia 148 Canale Italia Clair 3105 3051 3052  315  3051    2022-01-09
Italia 135 Italie Généraliste Canale Italia Clair 3106 3061 3062 ita  316  3061    2021-12-31 +
Italia 164 Canale Italia Clair 3107 3071 3072  317  3071    2022-01-18
SoloCalcio Italie Sport In Aria! Clair 4001 502   401  502    2022-08-08 +
Donna Sport TV Italie Sport In Aria! Clair 4002 412 413 ita  411  412    2022-08-08 +
Alma TV - Alice & Marcopolo Italie Généraliste In Aria! Clair 4003 422 423 ita  421  422    2022-08-08 +
TeleCampione Italie Télé Achat In Aria! Clair 4004 432 433 ita  424  432    2022-08-08 +
Linea Italia Italie Divers In Aria! Clair 4005 502   441  502    2022-08-08 +
Canale 165 Italie Télé Achat In Aria! Clair 4006 432 433  451  432    2022-08-08 +
AP Channel Italie Divers In Aria! Clair 4007 502   461  502    2022-08-08 +
Canale 232 Italie Divertissement In Aria! Clair 4009 502   481  502    2022-08-08 +
Parole di Vita Italie Divers In Aria! Clair 4010 492 493 ita  491  492    2022-08-08 +
Premio Sport
HBBTV
Italie Sport In Aria! Clair 4011 502   501  502    2022-08-08 +
9.0°E 12Eutelsat 9B 12111.00VIT1ItalyDVB-S2
PLS: Root+8
16APSK
Stream 3
31400 2/3DFree, 24.9 Mb/s 272900 Formulaire de mise à jour des informations publiées
TOPCrime (provvisorio) Harmonic Clair 7057 1049 1149 ita
1249 eng 
257  1049  2049  2022-03-11
Mediaset Extra (provvisorio) Mediaset Clair 7058 1001 1101 ita  258  1001    2022-06-29
27 Twentyseven Italie Divertissement Mediaset Clair 7059 1039 1139 ita  259  1039    2022-06-29 +
La5
Italie Générationnelle Mediaset Clair 7060 1013 1113 ita  260  1013    2022-06-29 +
Iris
Italie Généraliste Mediaset Clair 7061 1047 1147 ita  261  1047    2022-06-29 +
Deluxe 139 Italie Divers Clair 7185 410 411 ita  285  410    2022-06-29 +
ART Invest Italie Economique Clair 7186 420 421 ita  286  420    2022-06-29 +
Cusano Italia TV +1 Italie Divers Clair 7187 1490 1491 ita  287  1490    2022-07-21 +
EQUtv Italie Courses EPIQA Clair 7188 512 4112 ita  288  512    2022-03-01 +

Tele Padre Pio Italie Religion Clair 7192 650 651 ita  292  650    2021-04-09 +
Sky Sport 1 HD Italia Italie Sport Sky Italia Nagravision 3
VideoGuard
7201 2100 2101 ita  210  2100    2022-06-01 +
Sky Sport Calcio HD Italie Sport Sky Italia Nagravision 3
VideoGuard
7202 2200 2201 ita  220  2200    2022-06-01 +
9.0°E 16Eutelsat 9B 12111.00VIT1ItalyDVB-S2
PLS: Root+8
16APSK
Stream 4
31400 3/4Mediaset2, 24.9 Mb/s 272905 Formulaire de mise à jour des informations publiées
20Mediaset (provvisorio) Mediaset Clair 2020 1033 1133 ita
1233 eng 
220  1033    2022-03-09
20Mediaset (provvisorio) Mediaset Clair 2120 1033 1133 ita
1233 eng 
204  1033    2022-03-09
Boing Italie Jeunesse Mediaset Clair 2124 1009 1109 ita  224  1009    2022-03-08 +
Cartoonito Italy Italie Jeunesse Mediaset Clair 2125 1011 1111 ita  225  1011    2022-03-08 +
Boing Plus Italie Jeunesse Mediaset Clair 2126 1007 1107 ita  226  1007    2022-05-03 +
Boing Plus Mediaset Clair 2127 1007 1107 ita  227  1007    2022-05-03
Boing Italie Jeunesse Mediaset Clair 2128 1009 1109 ita  228  1009    2022-07-01 +
Cartoonito Mediaset Clair 2129 1011 1111 ita  229  1011    2022-06-29
QVC Italia HD Italie Télé Achat Mediaset Clair 2149 1043 1143 ita  249  1043    2022-03-09 +
TOPcrime
Italie Séries Mediaset Clair 2150 1050 1150 ita
1250 eng 
250  1050  2050  2022-03-26 +
Focus
Italie Généraliste Mediaset Clair 2151 1018 1118 ita
1218 eng 
251  1018    2022-03-26 +
Cine34 Italie Cinéma Mediaset Clair 2152 1006 1106 ita  252  1006    2022-03-26 +
Focus
Italie Généraliste Mediaset Clair 2153 1017 1117 ita  253  1017    2022-06-29 +
Cine34 Italie Cinéma Mediaset Clair 2154 1005 1105 ita  254  1005    2022-06-29 +
Radio 105 Italie Divertissement Mediaset Clair 2155 1027 1127 ita  255  1027    2022-06-29 +
RADIO 105 Mediaset Clair 2156 1027 1127 ita  206  1027    2022-06-29
9.0°E Eutelsat 9B 12111.00VIT1ItalyDVB-S2
PLS: Root+8
16APSK
Stream 5
31400 3/4La3, 6 635 kb/s 272810 Formulaire de mise à jour des informations publiées
Feeds occasionnels, données ou fréquence non active (2022-07-01)

Caractéristiques détaillées des flux du transpondeur (12111.00 V)

SID Ident. PID Format Colorimetry Width Height Aspect Ratio Frame rate
Sampling rate
Bitrate mode Bitrate Scan type Mise à jour
2020 20Mediaset (provvisorio) 1033 MPEG Video Version 2, Main@Main 4:2:0 720 576 16:9 25.000 FPS Variable Interlaced 2022-08-08
2020 20Mediaset (provvisorio) 1133 MPEG Audio Version 1, Layer 22 channels 48.0 kHz Constant 128 kb/s 2022-08-08
2124 Boing 1009 AVC, High@L3 4:2:0 720 576 16:9 25.000 FPS Interlaced 2022-08-08
2124 Boing 1109 E-AC-32 channels 48.0 kHz Constant 96.0 kb/s 2022-08-08
2125 Cartoonito 1011 AVC, High@L3 4:2:0 720 576 16:9 25.000 FPS Interlaced 2022-08-08
2125 Cartoonito 1111 E-AC-32 channels 48.0 kHz Constant 96.0 kb/s 2022-08-08
2126 Boing Plus 1007 AVC, High@L3 4:2:0 720 576 16:9 25.000 FPS Interlaced 2022-08-08
2126 Boing Plus 1107 E-AC-32 channels 48.0 kHz Constant 96.0 kb/s 2022-08-08
2149 QVC HD 1043 AVC Version 2, Main@L4 4:2:0 1920 1080 16:9 25.000 FPS Interlaced 2022-08-08
2149 QVC HD 1143 MPEG Audio Version 1, Layer 22 channels 48.0 kHz Constant 128 kb/s 2022-08-08
2150 TOPcrime 1050 AVC, High@L3 4:2:0 720 576 16:9 25.000 FPS Interlaced 2022-08-08
2150 TOPcrime 1150 E-AC-32 channels 48.0 kHz Constant 128 kb/s 2022-08-08
2150 TOPcrime 1250 AAC LC SBRLATM2 channels 48.0 kHz Variable 2022-08-08
2150 TOPcrime 2050 Teletext Subtitle 2022-08-08
2151 Focus 1018 AVC, High@L3 4:2:0 720 576 16:9 25.000 FPS Interlaced 2022-08-08
2151 Focus 1118 E-AC-32 channels 48.0 kHz Constant 128 kb/s 2022-08-08
2151 Focus 1218 AAC LC SBRLATM2 channels 48.0 kHz Variable 2022-08-08
2152 Cine34 1006 AVC, High@L3 4:2:0 720 576 16:9 25.000 FPS Interlaced 2022-08-08
2152 Cine34 1106 E-AC-32 channels 48.0 kHz Constant 128 kb/s 2022-08-08
2153 Focus (provvisorio) 1017 MPEG Video Version 2, Main@Main 4:2:0 720 576 16:9 25.000 FPS Variable 2022-08-08
2153 Focus (provvisorio) 1117 MPEG Audio Version 1, Layer 22 channels 48.0 kHz Constant 128 kb/s 2022-08-08
2154 Cine34 (provvisorio) 1005 MPEG Video Version 2, Main@Main 4:2:0 720 576 16:9 25.000 FPS Variable Progressive 2022-08-08
2154 Cine34 (provvisorio) 1105 MPEG Audio Version 1, Layer 22 channels 48.0 kHz Constant 128 kb/s 2022-08-08
2156 RADIO 105 1027 AVC, High@L3 4:2:0 720 576 16:9 25.000 FPS Interlaced 2022-08-08
2156 RADIO 105 1127 AAC LC SBRLATM2 channels 48.0 kHz Variable 2022-08-08

Corrections / mises à jour

Légende

8K - Ultra HD

4K - Ultra HD

Haute définition

Diffusion partielle ou totale en 16/9

     

Video: MPEG-4/AVC/H-264

     

Video: MPEG-H/HEVC/H-265

     

Video: MPEG-I/VVC/H-266

     

Clair

     

Crypté

Affiche une capture d´image

3D

Vidéos en Direct

+

Historique des news

     

DVB-S

     

DVB-S2

     

DVB-S2X


PROFIL - ACCUEIL - NEWS - SATELLITES - BOUQUETS - CHAINES - RECHERCHE - FAISCEAUX - FEEDS - CIMETIERE - Corrections / mises à jour

Le contenu de ce site est protégé par copyright et appartient à KingOfSat, excepté les images contenues dans les captures d'écran qui appartiennent à leurs propriétaires respectifs. Ces images sont uniquement proposées à des fins d'illustration, d'identification et de promotion des chaînes TV correspondantes. Pour toute question / remarque relative au copyright, merci de contacter le webmaster.